Time,TemperatureF,DewpointF,PressureIn,WindDirection,WindDirectionDegrees,WindSpeedMPH,WindSpeedGustMPH,Humidity,HourlyPrecipIn,Conditions,Clouds,dailyrainin,SolarRadiationWatts/m^2,SoftwareType,DateUTC
2013-02-15 00:04:00,22.2,13.9,30.44,SSE,155,2.0,4.0,70,0.00,RA,,0.00,0.0,WeatherDisplay:10.37,2013-02-15 07:04:00,
2013-02-15 00:09:00,22.2,13.9,30.42,SSE,156,1.0,2.0,70,0.00,RA,,0.00,0.0,WeatherDisplay:10.37,2013-02-15 07:09:00,
2013-02-15 00:14:00,22.1,13.8,30.42,SSE,156,0.0,1.0,70,0.00,RA,,0.00,0.0,WeatherDisplay:10.37,2013-02-15 07:14:00,
2013-02-15 00:19:00,22.0,13.7,30.43,SSE,156,0.0,1.0,70,0.00,RA,,0.00,0.0,WeatherDisplay:10.37,2013-02-15 07:19:00,
2013-02-15 00:24:00,22.0,13.7,30.38,SSE,156,0.0,0.0,70,0.00,RA,,0.00,0.0,WeatherDisplay:10.37,2013-02-15 07:24:00,
2013-02-15 00:29:00,21.8,13.2,30.40,SSE,156,0.0,0.0,69,0.00,OVC,,0.00,0.0,WeatherDisplay:10.37,2013-02-15 07:29:00,
2013-02-15 00:34:00,21.6,13.0,30.43,SSE,156,0.0,2.0,69,0.00,OVC,,0.00,0.0,WeatherDisplay:10.37,2013-02-15 07:34:00,
2013-02-15 00:39:00,21.4,12.8,30.40,SSE,156,0.0,2.0,69,0.00,OVC,,0.00,0.0,WeatherDisplay:10.37,2013-02-15 07:39:00,
2013-02-15 00:44:00,21.2,12.6,30.42,SE,135,0.0,4.0,69,0.00,OVC,,0.00,0.0,WeatherDisplay:10.37,2013-02-15 07:44:00,
2013-02-15 00:49:00,21.1,12.5,30.39,SE,127,0.0,3.0,69,0.00,OVC,,0.00,0.0,WeatherDisplay:10.37,2013-02-15 07:49:00,
2013-02-15 00:59:00,20.8,12.2,30.39,SE,130,0.0,0.0,69,0.00,OVC,,0.00,0.0,WeatherDisplay:10.37,2013-02-15 07:59:00,
2013-02-15 01:04:00,20.7,12.5,30.41,SE,130,0.0,0.0,70,0.00,OVC,,0.00,0.0,WeatherDisplay:10.37,2013-02-15 08:04:00,
2013-02-15 01:09:00,20.6,12.0,30.45,SE,130,0.0,0.0,69,0.00,OVC,,0.00,0.0,WeatherDisplay:10.37,2013-02-15 08:09:00,
2013-02-15 01:14:00,20.4,11.8,30.45,SE,130,0.0,0.0,69,0.00,OVC,,0.00,0.0,WeatherDisplay:10.37,2013-02-15 08:14:00,
2013-02-15 01:19:00,20.2,12.0,30.48,SE,130,0.0,0.0,70,0.00,BKN,,0.00,0.0,WeatherDisplay:10.37,2013-02-15 08:19:00,
2013-02-15 01:24:00,20.0,11.8,30.43,SE,130,0.0,0.0,70,0.00,BKN,,0.00,0.0,WeatherDisplay:10.37,2013-02-15 08:24:00,
2013-02-15 01:29:00,19.8,11.6,30.41,SE,130,0.0,0.0,70,0.00,BKN,,0.00,0.0,WeatherDisplay:10.37,2013-02-15 08:29:00,
2013-02-15 01:34:00,19.7,11.5,30.48,SE,130,0.0,0.0,70,0.00,BKN,,0.00,0.0,WeatherDisplay:10.37,2013-02-15 08:34:00,
2013-02-15 01:39:00,19.7,11.8,30.46,SE,130,0.0,0.0,71,0.00,BKN,,0.00,0.0,WeatherDisplay:10.37,2013-02-15 08:39:00,
2013-02-15 01:49:00,19.3,11.4,30.40,SE,130,0.0,0.0,71,0.00,BKN,,0.00,0.0,WeatherDisplay:10.37,2013-02-15 08:49:00,
2013-02-15 01:54:00,19.1,11.6,30.40,SE,130,0.0,0.0,72,0.00,BKN,,0.00,0.0,WeatherDisplay:10.37,2013-02-15 08:54:00,
2013-02-15 01:59:00,18.9,11.4,30.41,SE,130,0.0,1.0,72,0.00,BKN,,0.00,0.0,WeatherDisplay:10.37,2013-02-15 08:59:00,
2013-02-15 02:04:00,18.8,11.3,30.41,SE,130,0.0,2.0,72,0.00,BKN,,0.00,0.0,WeatherDisplay:10.37,2013-02-15 09:04:00,
2013-02-15 02:09:00,18.7,11.2,30.43,SE,130,0.0,2.0,72,0.00,BKN,,0.00,0.0,WeatherDisplay:10.37,2013-02-15 09:09:00,
2013-02-15 02:14:00,18.6,11.4,31.42,SE,130,0.0,2.0,73,0.00,BKN,,0.00,0.0,WeatherDisplay:10.37,2013-02-15 09:14:00,
2013-02-15 02:19:00,18.5,11.3,31.42,SE,139,0.0,2.0,73,0.00,OVC,,0.00,0.0,WeatherDisplay:10.37,2013-02-15 09:19:00,
2013-02-15 02:24:00,18.4,11.2,31.01,SSW,201,0.0,2.0,73,0.00,OVC,,0.00,0.0,WeatherDisplay:10.37,2013-02-15 09:24:00,
2013-02-15 02:29:00,18.2,11.3,31.02,SSW,210,0.0,1.0,74,0.00,OVC,,0.00,0.0,WeatherDisplay:10.37,2013-02-15 09:29:00,
2013-02-15 02:34:00,18.1,11.2,31.01,SSW,210,0.0,1.0,74,0.00,OVC,,0.00,0.0,WeatherDisplay:10.37,2013-02-15 09:34:00,
2013-02-15 02:39:00,18.0,11.1,31.02,SSW,210,0.0,1.0,74,0.00,OVC,,0.00,0.0,WeatherDisplay:10.37,2013-02-15 09:39:00,
2013-02-15 02:44:00,17.9,11.3,30.97,SSW,210,0.0,1.0,75,0.00,OVC,,0.00,0.0,WeatherDisplay:10.37,2013-02-15 09:44:00,
2013-02-15 02:49:00,17.8,11.2,30.92,SSW,210,0.0,1.0,75,0.00,OVC,,0.00,0.0,WeatherDisplay:10.37,2013-02-15 09:49:00,
2013-02-15 02:54:00,17.7,11.1,30.92,SSW,210,0.0,0.0,75,0.00,OVC,,0.00,0.0,WeatherDisplay:10.37,2013-02-15 09:54:00,
2013-02-15 02:59:00,17.6,11.0,30.92,SSW,211,0.0,1.0,75,0.00,OVC,,0.00,0.0,WeatherDisplay:10.37,2013-02-15 09:59:00,
2013-02-15 03:04:00,17.6,11.3,30.95,SSW,211,0.0,1.0,76,0.00,-SN,,0.00,0.0,WeatherDisplay:10.37,2013-02-15 10:04:00,
2013-02-15 03:09:00,17.5,11.3,30.94,SSW,211,0.0,1.0,76,0.00,-SN,,0.00,0.0,WeatherDisplay:10.37,2013-02-15 10:09:00,
2013-02-15 03:14:00,17.5,11.5,30.97,SSW,211,0.0,1.0,77,0.00,-SN,,0.00,0.0,WeatherDisplay:10.37,2013-02-15 10:14:00,
2013-02-15 03:19:00,17.5,11.5,30.90,SSW,211,0.0,0.0,77,0.00,OVC,,0.00,0.0,WeatherDisplay:10.37,2013-02-15 10:19:00,
2013-02-15 03:24:00,17.4,11.4,30.91,SSW,211,0.0,0.0,77,0.00,OVC,,0.00,0.0,WeatherDisplay:10.37,2013-02-15 10:24:00,
2013-02-15 03:29:00,17.3,11.3,30.99,SSW,211,0.0,1.0,77,0.00,OVC,,0.00,0.0,WeatherDisplay:10.37,2013-02-15 10:29:00,
2013-02-15 03:39:00,17.0,11.0,30.46,SSW,211,0.0,0.0,77,0.00,-SN,,0.00,0.0,WeatherDisplay:10.37,2013-02-15 10:39:00,
2013-02-15 03:44:00,16.8,10.8,30.44,SSW,211,0.0,0.0,77,0.00,-SN,,0.00,0.0,WeatherDisplay:10.37,2013-02-15 10:44:00,
2013-02-15 03:49:00,16.7,10.7,30.44,SSW,211,0.0,1.0,77,0.00,-SN,,0.00,0.0,WeatherDisplay:10.37,2013-02-15 10:49:00,
2013-02-15 03:59:00,16.4,10.4,30.42,SSW,211,0.0,0.0,77,0.00,-SN,,0.00,0.0,WeatherDisplay:10.37,2013-02-15 10:59:00,
2013-02-15 04:04:00,16.3,10.3,30.40,SSW,211,0.0,0.0,77,0.00,-SN,,0.00,0.0,WeatherDisplay:10.37,2013-02-15 11:04:00,
2013-02-15 04:09:00,16.1,10.2,30.40,SSW,211,0.0,0.0,77,0.00,-SN,,0.00,0.0,WeatherDisplay:10.37,2013-02-15 11:09:00,
2013-02-15 04:14:00,15.9,10.0,30.40,SSW,211,0.0,0.0,77,0.00,-SN,,0.00,0.0,WeatherDisplay:10.37,2013-02-15 11:14:00,
2013-02-15 04:19:00,15.7,9.8,30.41,SSW,211,0.0,0.0,77,0.00,BKN,,0.00,0.0,WeatherDisplay:10.37,2013-02-15 11:19:00,
2013-02-15 04:24:00,15.5,9.6,30.46,SSW,211,0.0,0.0,77,0.00,BKN,,0.00,0.0,WeatherDisplay:10.37,2013-02-15 11:24:00,
2013-02-15 04:29:00,15.3,9.4,30.44,SSW,211,0.0,0.0,77,0.00,BKN,,0.00,0.0,WeatherDisplay:10.37,2013-02-15 11:29:00,
2013-02-15 04:34:00,15.2,9.3,30.47,SSW,211,0.0,1.0,77,0.00,BKN,,0.00,0.0,WeatherDisplay:10.37,2013-02-15 11:34:00,
2013-02-15 04:39:00,15.0,9.1,30.48,SSW,211,0.0,0.0,77,0.00,BKN,,0.00,0.0,WeatherDisplay:10.37,2013-02-15 11:39:00,
2013-02-15 04:44:00,14.9,9.0,30.43,SSW,211,0.0,0.0,77,0.00,BKN,,0.00,0.0,WeatherDisplay:10.37,2013-02-15 11:44:00,
2013-02-15 04:49:00,14.8,9.2,30.47,SSW,211,0.0,1.0,78,0.00,BKN,,0.00,0.0,WeatherDisplay:10.37,2013-02-15 11:49:00,
2013-02-15 04:54:00,14.7,9.1,30.46,SSW,211,0.0,1.0,78,0.00,BKN,,0.00,0.0,WeatherDisplay:10.37,2013-02-15 11:54:00,
2013-02-15 04:59:00,14.7,9.1,30.46,SSW,208,2.0,4.0,78,0.00,BKN,,0.00,0.0,WeatherDisplay:10.37,2013-02-15 11:59:00,
2013-02-15 05:04:00,14.8,9.4,30.46,SSW,199,3.0,4.0,79,0.00,BKN,,0.00,0.0,WeatherDisplay:10.37,2013-02-15 12:04:00,
2013-02-15 05:09:00,14.9,9.5,30.46,SSW,194,2.0,4.0,79,0.00,BKN,,0.00,0.0,WeatherDisplay:10.37,2013-02-15 12:09:00,
2013-02-15 05:19:00,15.0,9.9,30.76,SSW,192,0.0,0.0,80,0.00,OVC,,0.00,0.0,WeatherDisplay:10.37,2013-02-15 12:19:00,
2013-02-15 05:24:00,15.0,9.9,30.98,SSW,192,0.0,0.0,80,0.00,OVC,,0.00,0.0,WeatherDisplay:10.37,2013-02-15 12:24:00,
2013-02-15 05:29:00,15.1,10.1,30.98,South,182,2.0,4.0,80,0.00,OVC,,0.00,0.0,WeatherDisplay:10.37,2013-02-15 12:29:00,
2013-02-15 05:34:00,15.2,10.2,30.97,South,170,1.0,3.0,80,0.00,OVC,,0.00,0.0,WeatherDisplay:10.37,2013-02-15 12:34:00,
2013-02-15 05:39:00,15.3,10.2,30.91,South,170,0.0,3.0,80,0.00,OVC,,0.00,0.0,WeatherDisplay:10.37,2013-02-15 12:39:00,
2013-02-15 05:44:00,15.4,10.3,30.97,South,172,1.0,4.0,80,0.00,OVC,,0.00,0.0,WeatherDisplay:10.37,2013-02-15 12:44:00,
2013-02-15 05:49:00,15.5,10.4,30.98,South,169,0.0,2.0,80,0.00,OVC,,0.00,0.0,WeatherDisplay:10.37,2013-02-15 12:49:00,
2013-02-15 05:54:00,15.5,10.4,30.98,South,169,0.0,3.0,80,0.00,OVC,,0.00,0.0,WeatherDisplay:10.37,2013-02-15 12:54:00,
2013-02-15 05:59:00,15.6,10.8,30.93,South,169,0.0,2.0,81,0.00,OVC,,0.00,0.0,WeatherDisplay:10.37,2013-02-15 12:59:00,
2013-02-15 06:04:00,15.6,10.8,31.04,South,169,0.0,2.0,81,0.00,OVC,,0.00,0.0,WeatherDisplay:10.37,2013-02-15 13:04:00,
2013-02-15 06:09:00,15.7,10.9,30.98,SSE,162,2.0,3.0,81,0.00,OVC,,0.00,0.0,WeatherDisplay:10.37,2013-02-15 13:09:00,
2013-02-15 06:14:00,15.8,11.0,30.42,SSE,158,2.0,5.0,81,0.00,OVC,,0.00,0.0,WeatherDisplay:10.37,2013-02-15 13:14:00,
2013-02-15 06:19:00,15.9,11.1,30.42,SSE,156,1.0,3.0,81,0.00,OVC,,0.00,0.0,WeatherDisplay:10.37,2013-02-15 13:19:00,
2013-02-15 06:24:00,16.0,11.2,30.42,SSE,168,0.0,5.0,81,0.00,OVC,,0.00,0.0,WeatherDisplay:10.37,2013-02-15 13:24:00,
2013-02-15 06:29:00,16.0,11.2,31.07,South,174,0.0,1.0,81,0.00,OVC,,0.00,0.0,WeatherDisplay:10.37,2013-02-15 13:29:00,
2013-02-15 06:39:00,16.1,11.3,31.06,South,182,0.0,2.0,81,0.00,OVC,,0.00,0.0,WeatherDisplay:10.37,2013-02-15 13:39:00,
2013-02-15 06:44:00,16.2,11.4,30.48,SW,222,0.0,2.0,81,0.00,OVC,,0.00,0.0,WeatherDisplay:10.37,2013-02-15 13:44:00,
2013-02-15 06:49:00,16.3,11.5,30.50,WSW,255,0.0,2.0,81,0.00,OVC,,0.00,0.0,WeatherDisplay:10.37,2013-02-15 13:49:00,
2013-02-15 06:59:00,16.6,11.8,30.52,WSW,257,0.0,2.0,81,0.00,OVC,,0.00,0.0,WeatherDisplay:10.37,2013-02-15 13:59:00,
2013-02-15 07:04:00,16.6,11.8,30.52,WSW,257,1.0,3.0,81,0.00,OVC,,0.00,0.0,WeatherDisplay:10.37,2013-02-15 14:04:00,
2013-02-15 07:09:00,16.7,11.9,30.52,WSW,257,0.0,2.0,81,0.00,OVC,,0.00,7.0,WeatherDisplay:10.37,2013-02-15 14:09:00,
2013-02-15 07:14:00,16.7,11.9,30.75,WSW,257,0.0,1.0,81,0.00,OVC,,0.00,9.0,WeatherDisplay:10.37,2013-02-15 14:14:00,
2013-02-15 07:19:00,16.8,11.9,30.70,WSW,258,0.0,0.0,81,0.00,OVC,,0.00,12.0,WeatherDisplay:10.37,2013-02-15 14:19:00,
2013-02-15 07:29:00,16.8,12.0,30.57,WSW,258,0.0,1.0,81,0.00,OVC,,0.00,21.0,WeatherDisplay:10.37,2013-02-15 14:29:00,
2013-02-15 07:39:00,17.0,12.2,30.57,WSW,258,1.0,2.0,81,0.00,OVC,,0.00,25.0,WeatherDisplay:10.37,2013-02-15 14:39:00,
2013-02-15 07:44:00,17.1,12.3,30.76,WSW,258,0.0,2.0,81,0.00,OVC,,0.00,23.0,WeatherDisplay:10.37,2013-02-15 14:44:00,
2013-02-15 07:49:00,17.2,12.4,30.89,WSW,258,0.0,2.0,81,0.00,OVC,,0.00,23.0,WeatherDisplay:10.37,2013-02-15 14:49:00,
2013-02-15 07:54:00,17.4,12.6,31.02,WSW,258,1.0,5.0,81,0.00,OVC,,0.00,28.0,WeatherDisplay:10.37,2013-02-15 14:54:00,
2013-02-15 07:59:00,17.5,12.7,31.01,WSW,258,1.0,4.0,81,0.00,OVC,,0.00,35.0,WeatherDisplay:10.37,2013-02-15 14:59:00,
2013-02-15 08:04:00,17.8,12.9,30.57,WSW,258,1.0,4.0,81,0.00,OVC,,0.00,40.0,WeatherDisplay:10.37,2013-02-15 15:04:00,
2013-02-15 08:09:00,18.0,13.2,30.57,WSW,258,1.0,2.0,81,0.00,OVC,,0.00,44.0,WeatherDisplay:10.37,2013-02-15 15:09:00,
2013-02-15 08:14:00,18.3,13.5,30.57,WSW,258,1.0,2.0,81,0.00,OVC,,0.00,47.0,WeatherDisplay:10.37,2013-02-15 15:14:00,
2013-02-15 08:19:00,18.7,13.9,30.57,West,261,3.0,6.0,81,0.00,BKN,,0.00,58.0,WeatherDisplay:10.37,2013-02-15 15:19:00,
2013-02-15 08:24:00,19.1,14.3,30.57,West,266,2.0,4.0,81,0.00,BKN,,0.00,49.0,WeatherDisplay:10.37,2013-02-15 15:24:00,
2013-02-15 08:29:00,19.6,14.7,30.57,West,266,0.0,3.0,81,0.00,BKN,,0.00,42.0,WeatherDisplay:10.37,2013-02-15 15:29:00,
2013-02-15 08:39:00,20.2,15.0,30.58,West,265,1.0,4.0,80,0.00,BKN,,0.00,62.0,WeatherDisplay:10.37,2013-02-15 15:39:00,
2013-02-15 08:44:00,20.6,15.4,30.57,West,265,0.0,3.0,80,0.00,BKN,,0.00,58.0,WeatherDisplay:10.37,2013-02-15 15:44:00,
2013-02-15 08:49:00,21.0,15.8,30.57,West,265,0.0,1.0,80,0.00,BKN,,0.00,60.0,WeatherDisplay:10.37,2013-02-15 15:49:00,
2013-02-15 08:54:00,21.5,16.3,30.57,West,265,0.0,2.0,80,0.00,BKN,,0.00,65.0,WeatherDisplay:10.37,2013-02-15 15:54:00,
2013-02-15 08:59:00,22.0,16.5,30.58,West,260,1.0,3.0,79,0.00,BKN,,0.00,67.0,WeatherDisplay:10.37,2013-02-15 15:59:00,
2013-02-15 09:04:00,22.4,16.9,30.58,WSW,248,1.0,3.0,79,0.00,BKN,,0.00,70.0,WeatherDisplay:10.37,2013-02-15 16:04:00,
2013-02-15 09:09:00,22.8,16.9,30.58,SW,215,1.0,3.0,78,0.00,BKN,,0.00,107.0,WeatherDisplay:10.37,2013-02-15 16:09:00,
2013-02-15 09:14:00,23.3,17.4,30.55,South,172,3.0,6.0,78,0.00,BKN,,0.00,137.0,WeatherDisplay:10.37,2013-02-15 16:14:00,
2013-02-15 09:19:00,23.9,17.7,30.54,South,171,3.0,8.0,77,0.00,BKN,,0.00,264.0,WeatherDisplay:10.37,2013-02-15 16:19:00,
2013-02-15 09:24:00,24.5,18.0,30.55,South,174,3.0,6.0,76,0.00,BKN,,0.00,207.0,WeatherDisplay:10.37,2013-02-15 16:24:00,
2013-02-15 09:29:00,25.1,17.9,30.56,South,183,5.0,7.0,74,0.00,BKN,,0.00,174.0,WeatherDisplay:10.37,2013-02-15 16:29:00,
2013-02-15 09:34:00,25.6,17.8,30.57,South,170,2.0,7.0,72,0.00,BKN,,0.00,315.0,WeatherDisplay:10.37,2013-02-15 16:34:00,
2013-02-15 09:39:00,26.1,18.0,30.57,SSE,164,5.0,6.0,71,0.00,BKN,,0.00,311.0,WeatherDisplay:10.37,2013-02-15 16:39:00,
2013-02-15 09:44:00,26.7,17.9,30.58,South,176,3.0,6.0,69,0.00,BKN,,0.00,422.0,WeatherDisplay:10.37,2013-02-15 16:44:00,
2013-02-15 09:49:00,27.3,18.2,30.58,South,179,3.0,6.0,68,0.00,BKN,,0.00,445.0,WeatherDisplay:10.37,2013-02-15 16:49:00,
2013-02-15 09:54:00,28.0,18.5,30.64,South,176,1.0,4.0,67,0.00,BKN,,0.00,336.0,WeatherDisplay:10.37,2013-02-15 16:54:00,
2013-02-15 09:59:00,28.8,18.9,30.58,South,186,2.0,6.0,66,0.00,BKN,,0.00,429.0,WeatherDisplay:10.37,2013-02-15 16:59:00,
2013-02-15 10:04:00,29.6,19.3,30.58,South,180,3.0,8.0,65,0.00,BKN,,0.00,285.0,WeatherDisplay:10.37,2013-02-15 17:04:00,
2013-02-15 10:09:00,30.1,18.6,30.66,South,187,3.0,5.0,62,0.00,BKN,,0.00,417.0,WeatherDisplay:10.37,2013-02-15 17:09:00,
2013-02-15 10:14:00,30.6,19.1,31.04,South,186,3.0,5.0,62,0.00,BKN,,0.00,489.0,WeatherDisplay:10.37,2013-02-15 17:14:00,
2013-02-15 10:19:00,31.1,19.2,31.04,South,183,2.0,5.0,61,0.00,SCT,,0.00,496.0,WeatherDisplay:10.37,2013-02-15 17:19:00,
2013-02-15 10:24:00,31.6,18.9,31.04,South,183,3.0,7.0,59,0.00,RA,,0.01,561.0,WeatherDisplay:10.37,2013-02-15 17:24:00,
2013-02-15 10:29:00,32.2,19.0,31.04,South,176,3.0,7.0,58,0.00,RA,,0.01,541.0,WeatherDisplay:10.37,2013-02-15 17:29:00,
2013-02-15 10:39:00,33.0,19.0,31.89,South,179,2.0,6.0,56,0.00,RA,,0.01,584.0,WeatherDisplay:10.37,2013-02-15 17:39:00,
2013-02-15 10:49:00,34.0,19.5,30.49,South,173,3.0,5.0,55,0.00,RA,,0.01,601.0,WeatherDisplay:10.37,2013-02-15 17:49:00,
2013-02-15 10:54:00,34.4,19.5,30.55,South,171,3.0,6.0,54,0.00,SCT,,0.01,608.0,WeatherDisplay:10.37,2013-02-15 17:54:00,
2013-02-15 10:59:00,35.0,19.1,30.50,South,174,2.0,7.0,52,0.00,SCT,,0.01,621.0,WeatherDisplay:10.37,2013-02-15 17:59:00,
2013-02-15 11:04:00,35.3,19.4,30.54,South,177,3.0,6.0,52,0.00,SCT,,0.01,650.0,WeatherDisplay:10.37,2013-02-15 18:04:00,
2013-02-15 11:09:00,35.7,19.3,30.59,South,171,2.0,6.0,51,0.00,SCT,,0.03,617.0,WeatherDisplay:10.37,2013-02-15 18:09:00,
2013-02-15 11:14:00,36.1,19.2,30.55,SSE,167,0.0,5.0,50,0.00,RA,,0.03,687.0,WeatherDisplay:10.37,2013-02-15 18:14:00,
2013-02-15 11:19:00,36.5,20.1,30.53,SSE,166,2.0,7.0,51,0.00,RA,,0.03,663.0,WeatherDisplay:10.37,2013-02-15 18:19:00,
2013-02-15 11:24:00,36.8,19.9,30.58,SSE,165,0.0,5.0,50,0.00,RA,,0.03,165.0,WeatherDisplay:10.37,2013-02-15 18:24:00,
2013-02-15 11:29:00,37.0,19.6,30.61,South,175,3.0,5.0,49,0.00,RA,,0.03,664.0,WeatherDisplay:10.37,2013-02-15 18:29:00,
2013-02-15 11:34:00,37.2,19.8,30.62,SSE,165,1.0,5.0,49,0.00,RA,,0.03,664.0,WeatherDisplay:10.37,2013-02-15 18:34:00,
2013-02-15 11:39:00,37.4,20.4,30.67,SSE,151,2.0,4.0,50,0.00,RA,,0.03,698.0,WeatherDisplay:10.37,2013-02-15 18:39:00,
2013-02-15 11:44:00,37.6,20.2,30.53,SE,138,2.0,5.0,49,0.00,SCT,,0.03,763.0,WeatherDisplay:10.37,2013-02-15 18:44:00,
2013-02-15 11:49:00,37.7,19.3,30.86,SE,144,1.0,5.0,47,0.00,RA,,0.04,429.0,WeatherDisplay:10.37,2013-02-15 18:49:00,
2013-02-15 11:54:00,37.6,18.6,31.03,SE,130,1.0,5.0,46,0.00,RA,,0.04,264.0,WeatherDisplay:10.37,2013-02-15 18:54:00,
2013-02-15 11:59:00,37.5,18.6,31.03,East,95,0.0,2.0,46,0.00,RA,,0.04,265.0,WeatherDisplay:10.37,2013-02-15 18:59:00,
2013-02-15 12:04:00,37.5,18.1,31.00,East,90,0.0,0.0,45,0.00,RA,,0.04,178.0,WeatherDisplay:10.37,2013-02-15 19:04:00,
2013-02-15 12:09:00,37.2,17.8,30.74,East,90,0.0,1.0,45,0.00,RA,,0.04,195.0,WeatherDisplay:10.37,2013-02-15 19:09:00,
2013-02-15 12:14:00,37.0,18.1,30.65,East,90,0.0,3.0,46,0.00,RA,,0.04,218.0,WeatherDisplay:10.37,2013-02-15 19:14:00,
2013-02-15 12:19:00,36.9,18.5,30.72,East,90,1.0,3.0,47,0.00,BKN,,0.04,237.0,WeatherDisplay:10.37,2013-02-15 19:19:00,
2013-02-15 12:24:00,36.9,18.5,30.73,East,89,2.0,6.0,47,0.00,BKN,,0.04,461.0,WeatherDisplay:10.37,2013-02-15 19:24:00,
2013-02-15 12:29:00,37.0,19.6,30.73,ENE,75,1.0,5.0,49,0.01,RA,,0.05,671.0,WeatherDisplay:10.37,2013-02-15 19:29:00,
2013-02-15 12:34:00,37.4,19.4,30.73,ENE,75,2.0,5.0,48,0.00,RA,,0.05,578.0,WeatherDisplay:10.37,2013-02-15 19:34:00,
2013-02-15 12:39:00,37.7,19.3,30.58,ENE,58,0.0,5.0,47,0.00,RA,,0.05,747.0,WeatherDisplay:10.37,2013-02-15 19:39:00,
2013-02-15 12:49:00,38.7,19.2,30.58,NNE,27,2.0,5.0,45,0.00,RA,,0.05,246.0,WeatherDisplay:10.37,2013-02-15 19:49:00,
2013-02-15 12:59:00,39.4,19.3,30.52,NE,43,3.0,7.0,44,0.00,BKN,,0.05,782.0,WeatherDisplay:10.37,2013-02-15 19:59:00,
2013-02-15 13:04:00,39.6,18.4,30.98,ENE,57,2.0,6.0,42,0.00,BKN,,0.05,304.0,WeatherDisplay:10.37,2013-02-15 20:04:00,
2013-02-15 13:09:00,39.6,16.6,30.93,NNE,16,2.0,9.0,39,0.00,BKN,,0.05,234.0,WeatherDisplay:10.37,2013-02-15 20:09:00,
2013-02-15 13:14:00,39.5,17.1,30.93,North,2,2.0,8.0,40,0.00,BKN,,0.05,357.0,WeatherDisplay:10.37,2013-02-15 20:14:00,
2013-02-15 13:19:00,39.4,17.6,30.91,NNW,340,2.0,7.0,41,0.00,OVC,,0.05,550.0,WeatherDisplay:10.37,2013-02-15 20:19:00,
2013-02-15 13:29:00,39.9,16.9,30.91,North,6,2.0,8.0,39,0.00,OVC,,0.05,519.0,WeatherDisplay:10.37,2013-02-15 20:29:00,
2013-02-15 13:34:00,40.4,17.3,30.91,NNE,24,2.0,9.0,39,0.00,OVC,,0.05,547.0,WeatherDisplay:10.37,2013-02-15 20:34:00,
2013-02-15 13:39:00,40.6,17.0,30.91,NE,42,5.0,9.0,38,0.00,OVC,,0.05,636.0,WeatherDisplay:10.37,2013-02-15 20:39:00,
2013-02-15 13:44:00,40.6,16.3,30.91,ENE,71,5.0,9.0,37,0.00,OVC,,0.05,163.0,WeatherDisplay:10.37,2013-02-15 20:44:00,
2013-02-15 13:49:00,40.2,16.0,30.91,ENE,74,3.0,12.0,37,0.00,OVC,,0.05,139.0,WeatherDisplay:10.37,2013-02-15 20:49:00,
2013-02-15 13:59:00,39.6,14.8,30.91,ENE,75,6.0,12.0,36,0.00,OVC,,0.05,120.0,WeatherDisplay:10.37,2013-02-15 20:59:00,
2013-02-15 14:04:00,39.3,14.5,30.91,ENE,70,2.0,5.0,36,0.00,OVC,,0.05,543.0,WeatherDisplay:10.37,2013-02-15 21:04:00,
2013-02-15 14:09:00,39.4,14.6,31.87,East,79,6.0,10.0,36,0.00,OVC,,0.05,158.0,WeatherDisplay:10.37,2013-02-15 21:09:00,
2013-02-15 14:19:00,39.9,15.7,31.87,East,86,5.0,9.0,37,0.00,BKN,,0.05,552.0,WeatherDisplay:10.37,2013-02-15 21:19:00,
2013-02-15 14:29:00,40.6,15.7,31.87,East,89,2.0,5.0,36,0.00,BKN,,0.05,207.0,WeatherDisplay:10.37,2013-02-15 21:29:00,
2013-02-15 14:34:00,40.6,15.0,31.87,ENE,69,5.0,8.0,35,0.00,BKN,,0.05,149.0,WeatherDisplay:10.37,2013-02-15 21:34:00,
2013-02-15 14:39:00,40.3,14.8,31.87,ENE,61,3.0,7.0,35,0.00,BKN,,0.05,213.0,WeatherDisplay:10.37,2013-02-15 21:39:00,
2013-02-15 14:44:00,40.1,14.6,31.87,East,84,2.0,7.0,35,0.00,BKN,,0.05,130.0,WeatherDisplay:10.37,2013-02-15 21:44:00,
2013-02-15 14:49:00,39.8,15.0,31.87,East,97,6.0,9.0,36,0.00,BKN,,0.05,142.0,WeatherDisplay:10.37,2013-02-15 21:49:00,
2013-02-15 14:59:00,39.8,14.3,31.87,East,79,2.0,9.0,35,0.00,BKN,,0.05,432.0,WeatherDisplay:10.37,2013-02-15 21:59:00,
2013-02-15 15:04:00,40.0,14.5,31.87,NE,49,0.0,5.0,35,0.00,BKN,,0.05,399.0,WeatherDisplay:10.37,2013-02-15 22:04:00,
2013-02-15 15:09:00,40.2,15.4,31.87,East,101,5.0,8.0,36,0.00,BKN,,0.05,348.0,WeatherDisplay:10.37,2013-02-15 22:09:00,
2013-02-15 15:14:00,40.6,15.0,31.87,East,93,7.0,12.0,35,0.00,BKN,,0.05,160.0,WeatherDisplay:10.37,2013-02-15 22:14:00,
2013-02-15 15:19:00,40.6,14.4,31.87,East,90,7.0,10.0,34,0.00,BKN,,0.05,343.0,WeatherDisplay:10.37,2013-02-15 22:19:00,
2013-02-15 15:24:00,40.5,14.3,31.87,East,84,5.0,10.0,34,0.00,BKN,,0.05,327.0,WeatherDisplay:10.37,2013-02-15 22:24:00,
2013-02-15 15:34:00,40.3,14.8,31.87,East,90,10.0,14.0,35,0.00,BKN,,0.05,299.0,WeatherDisplay:10.37,2013-02-15 22:34:00,
2013-02-15 15:39:00,40.2,14.7,31.87,East,101,7.0,12.0,35,0.00,BKN,,0.05,272.0,WeatherDisplay:10.37,2013-02-15 22:39:00,
2013-02-15 15:44:00,40.2,14.0,31.87,ESE,120,3.0,9.0,34,0.00,BKN,,0.05,248.0,WeatherDisplay:10.37,2013-02-15 22:44:00,
2013-02-15 15:49:00,40.1,14.6,31.87,East,90,6.0,10.0,35,0.00,BKN,,0.05,200.0,WeatherDisplay:10.37,2013-02-15 22:49:00,
2013-02-15 15:59:00,40.1,13.9,31.87,East,82,7.0,14.0,34,0.00,BKN,,0.05,139.0,WeatherDisplay:10.37,2013-02-15 22:59:00,
2013-02-15 16:04:00,39.7,13.6,31.87,East,83,8.0,14.0,34,0.00,BKN,,0.05,130.0,WeatherDisplay:10.37,2013-02-15 23:04:00,
2013-02-15 16:09:00,39.4,14.0,31.87,ENE,75,2.0,12.0,35,0.00,BKN,,0.05,137.0,WeatherDisplay:10.37,2013-02-15 23:09:00,
2013-02-15 16:14:00,39.2,13.8,31.87,ENE,62,3.0,12.0,35,0.00,BKN,,0.05,104.0,WeatherDisplay:10.37,2013-02-15 23:14:00,
2013-02-15 16:19:00,38.9,13.5,31.87,ENE,67,6.0,13.0,35,0.00,BKN,,0.05,100.0,WeatherDisplay:10.37,2013-02-15 23:19:00,
2013-02-15 16:24:00,38.6,13.3,31.87,East,79,3.0,12.0,35,0.00,BKN,,0.05,79.0,WeatherDisplay:10.37,2013-02-15 23:24:00,
2013-02-15 16:29:00,38.3,13.0,31.87,East,82,5.0,17.0,35,0.00,BKN,,0.05,95.0,WeatherDisplay:10.37,2013-02-15 23:29:00,
2013-02-15 16:34:00,38.0,13.4,31.87,East,80,7.0,13.0,36,0.00,BKN,,0.05,98.0,WeatherDisplay:10.37,2013-02-15 23:34:00,
2013-02-15 16:39:00,37.7,13.1,31.87,ENE,78,7.0,14.0,36,0.00,BKN,,0.05,116.0,WeatherDisplay:10.37,2013-02-15 23:39:00,
2013-02-15 16:49:00,37.1,12.6,31.87,ENE,75,5.0,12.0,36,0.00,BKN,,0.05,69.0,WeatherDisplay:10.37,2013-02-15 23:49:00,
2013-02-15 16:54:00,36.8,15.3,31.36,East,82,6.0,12.0,41,0.00,BKN,,0.05,42.0,WeatherDisplay:10.37,2013-02-15 23:54:00,
2013-02-15 16:59:00,36.3,15.3,31.36,East,85,8.0,14.0,42,0.00,BKN,,0.05,40.0,WeatherDisplay:10.37,2013-02-15 23:59:00,
2013-02-15 17:04:00,35.6,15.8,30.94,East,96,2.0,13.0,44,0.00,BKN,,0.05,32.0,WeatherDisplay:10.37,2013-02-16 00:04:00,
2013-02-15 17:09:00,35.1,15.8,30.94,ESE,106,5.0,9.0,45,0.00,BKN,,0.05,25.0,WeatherDisplay:10.37,2013-02-16 00:09:00,
2013-02-15 17:14:00,34.4,15.8,30.71,ESE,112,6.0,10.0,46,0.00,BKN,,0.05,16.0,WeatherDisplay:10.37,2013-02-16 00:14:00,
2013-02-15 17:19:00,34.3,16.1,30.71,ESE,109,5.0,9.0,47,0.00,BKN,,0.05,11.0,WeatherDisplay:10.37,2013-02-16 00:19:00,
2013-02-15 17:24:00,33.8,15.7,30.71,ESE,102,3.0,7.0,47,0.00,BKN,,0.05,7.0,WeatherDisplay:10.37,2013-02-16 00:24:00,
2013-02-15 17:29:00,33.4,15.8,30.71,ESE,103,5.0,8.0,48,0.00,BKN,,0.05,5.0,WeatherDisplay:10.37,2013-02-16 00:29:00,
2013-02-15 17:34:00,33.1,15.5,30.63,ESE,110,3.0,8.0,48,0.00,BKN,,0.05,0.0,WeatherDisplay:10.37,2013-02-16 00:34:00,
2013-02-15 17:39:00,32.8,15.7,30.61,ESE,104,5.0,8.0,49,0.00,BKN,,0.05,0.0,WeatherDisplay:10.37,2013-02-16 00:39:00,
2013-02-15 17:44:00,32.5,15.9,30.61,East,96,3.0,5.0,50,0.00,BKN,,0.05,0.0,WeatherDisplay:10.37,2013-02-16 00:44:00,
2013-02-15 17:49:00,32.3,15.7,30.49,East,99,3.0,6.0,50,0.00,BKN,,0.05,0.0,WeatherDisplay:10.37,2013-02-16 00:49:00,
2013-02-15 17:54:00,32.1,16.0,30.49,East,101,1.0,6.0,51,0.00,BKN,,0.05,0.0,WeatherDisplay:10.37,2013-02-16 00:54:00,
2013-02-15 17:59:00,31.8,15.8,30.49,East,99,2.0,6.0,51,0.00,BKN,,0.05,0.0,WeatherDisplay:10.37,2013-02-16 00:59:00,
2013-02-15 18:04:00,31.7,15.6,30.90,East,98,0.0,3.0,51,0.00,BKN,,0.05,0.0,WeatherDisplay:10.37,2013-02-16 01:04:00,
2013-02-15 18:09:00,31.5,15.9,30.67,East,98,0.0,3.0,52,0.00,BKN,,0.05,0.0,WeatherDisplay:10.37,2013-02-16 01:09:00,
2013-02-15 18:14:00,31.3,15.7,30.67,East,98,1.0,3.0,52,0.00,BKN,,0.05,0.0,WeatherDisplay:10.37,2013-02-16 01:14:00,
2013-02-15 18:19:00,31.1,15.9,30.62,East,99,0.0,3.0,53,0.00,BKN,,0.05,0.0,WeatherDisplay:10.37,2013-02-16 01:19:00,
2013-02-15 18:24:00,30.9,15.7,30.62,East,100,2.0,3.0,53,0.00,BKN,,0.05,0.0,WeatherDisplay:10.37,2013-02-16 01:24:00,
2013-02-15 18:29:00,30.6,15.5,30.62,East,100,1.0,3.0,53,0.00,BKN,,0.05,0.0,WeatherDisplay:10.37,2013-02-16 01:29:00,
2013-02-15 18:34:00,30.5,15.4,30.62,East,101,0.0,3.0,53,0.00,BKN,,0.05,0.0,WeatherDisplay:10.37,2013-02-16 01:34:00,
2013-02-15 18:39:00,30.3,15.6,31.40,ESE,102,1.0,3.0,54,0.00,BKN,,0.05,0.0,WeatherDisplay:10.37,2013-02-16 01:39:00,
2013-02-15 18:49:00,29.9,15.3,31.88,ESE,123,2.0,5.0,54,0.00,BKN,,0.05,0.0,WeatherDisplay:10.37,2013-02-16 01:49:00,
2013-02-15 18:54:00,29.7,15.5,31.88,SE,128,0.0,4.0,55,0.00,BKN,,0.05,0.0,WeatherDisplay:10.37,2013-02-16 01:54:00,
2013-02-15 18:59:00,29.5,15.8,31.88,SE,137,3.0,6.0,56,0.00,BKN,,0.05,0.0,WeatherDisplay:10.37,2013-02-16 01:59:00,
2013-02-15 19:04:00,29.4,16.0,31.88,SE,145,2.0,6.0,57,0.00,BKN,,0.05,0.0,WeatherDisplay:10.37,2013-02-16 02:04:00,
2013-02-15 19:09:00,29.3,15.9,31.88,SE,139,5.0,7.0,57,0.00,BKN,,0.05,0.0,WeatherDisplay:10.37,2013-02-16 02:09:00,
2013-02-15 19:14:00,29.2,15.9,31.88,SSE,150,3.0,7.0,57,0.00,BKN,,0.05,0.0,WeatherDisplay:10.37,2013-02-16 02:14:00,
2013-02-15 19:19:00,29.1,15.8,30.71,SE,146,2.0,7.0,57,0.00,BKN,,0.05,0.0,WeatherDisplay:10.37,2013-02-16 02:19:00,
2013-02-15 19:24:00,29.0,16.1,30.61,SE,142,1.0,5.0,58,0.00,BKN,,0.05,0.0,WeatherDisplay:10.37,2013-02-16 02:24:00,
2013-02-15 19:29:00,28.9,16.0,30.55,SSE,151,3.0,7.0,58,0.00,BKN,,0.05,0.0,WeatherDisplay:10.37,2013-02-16 02:29:00,
2013-02-15 19:34:00,28.9,15.9,30.51,SSE,154,3.0,6.0,58,0.00,BKN,,0.05,0.0,WeatherDisplay:10.37,2013-02-16 02:34:00,
2013-02-15 19:39:00,28.8,16.3,30.56,SSE,152,2.0,6.0,59,0.00,BKN,,0.05,0.0,WeatherDisplay:10.37,2013-02-16 02:39:00,
2013-02-15 19:49:00,28.7,16.2,30.55,SSE,158,3.0,6.0,59,0.00,BKN,,0.05,0.0,WeatherDisplay:10.37,2013-02-16 02:49:00,
2013-02-15 19:54:00,28.6,16.1,30.55,SSE,160,3.0,6.0,59,0.00,BKN,,0.05,0.0,WeatherDisplay:10.37,2013-02-16 02:54:00,
2013-02-15 19:59:00,28.6,16.1,31.01,SSE,161,3.0,6.0,59,0.00,BKN,,0.05,0.0,WeatherDisplay:10.37,2013-02-16 02:59:00,
2013-02-15 20:04:00,28.5,16.4,31.01,SSE,153,3.0,6.0,60,0.00,BKN,,0.05,0.0,WeatherDisplay:10.37,2013-02-16 03:04:00,
2013-02-15 20:09:00,28.5,16.4,31.01,SSE,147,2.0,5.0,60,0.00,BKN,,0.05,0.0,WeatherDisplay:10.37,2013-02-16 03:09:00,
2013-02-15 20:14:00,28.4,16.3,31.01,SSE,150,2.0,5.0,60,0.00,BKN,,0.05,0.0,WeatherDisplay:10.37,2013-02-16 03:14:00,
2013-02-15 20:19:00,28.4,16.3,31.01,SSE,151,3.0,6.0,60,0.00,BKN,,0.05,0.0,WeatherDisplay:10.37,2013-02-16 03:19:00,
2013-02-15 20:24:00,28.3,16.2,30.72,SSE,152,5.0,7.0,60,0.00,BKN,,0.05,0.0,WeatherDisplay:10.37,2013-02-16 03:24:00,
2013-02-15 20:29:00,28.2,16.1,30.72,SSE,153,3.0,5.0,60,0.00,BKN,,0.05,0.0,WeatherDisplay:10.37,2013-02-16 03:29:00,
2013-02-15 20:34:00,28.1,16.0,30.51,SSE,163,2.0,5.0,60,0.00,BKN,,0.05,0.0,WeatherDisplay:10.37,2013-02-16 03:34:00,
2013-02-15 20:39:00,28.0,16.3,30.46,South,169,2.0,5.0,61,0.00,BKN,,0.05,0.0,WeatherDisplay:10.37,2013-02-16 03:39:00,
2013-02-15 20:44:00,28.0,16.3,30.46,South,170,2.0,4.0,61,0.00,BKN,,0.05,0.0,WeatherDisplay:10.37,2013-02-16 03:44:00,
2013-02-15 20:49:00,27.8,16.1,30.46,SSE,168,2.0,6.0,61,0.00,BKN,,0.05,0.0,WeatherDisplay:10.37,2013-02-16 03:49:00,
2013-02-15 20:54:00,27.7,16.0,30.51,SSE,163,1.0,5.0,61,0.00,BKN,,0.05,0.0,WeatherDisplay:10.37,2013-02-16 03:54:00,
2013-02-15 21:04:00,27.5,16.2,30.53,SSE,160,2.0,5.0,62,0.00,BKN,,0.05,0.0,WeatherDisplay:10.37,2013-02-16 04:04:00,
2013-02-15 21:09:00,27.4,16.1,30.53,SSE,166,3.0,5.0,62,0.00,BKN,,0.05,0.0,WeatherDisplay:10.37,2013-02-16 04:09:00,
2013-02-15 21:14:00,27.2,15.9,30.53,South,178,2.0,5.0,62,0.00,BKN,,0.05,0.0,WeatherDisplay:10.37,2013-02-16 04:14:00,
2013-02-15 21:19:00,27.1,15.8,30.53,South,182,2.0,4.0,62,0.00,BKN,,0.05,0.0,WeatherDisplay:10.37,2013-02-16 04:19:00,
2013-02-15 21:24:00,26.9,16.0,30.53,South,182,2.0,4.0,63,0.00,BKN,,0.05,0.0,WeatherDisplay:10.37,2013-02-16 04:24:00,
2013-02-15 21:29:00,26.8,15.9,30.58,South,180,2.0,5.0,63,0.00,BKN,,0.05,0.0,WeatherDisplay:10.37,2013-02-16 04:29:00,
2013-02-15 21:34:00,26.6,15.7,30.60,South,178,5.0,8.0,63,0.00,BKN,,0.05,0.0,WeatherDisplay:10.37,2013-02-16 04:34:00,
2013-02-15 21:39:00,26.5,16.0,30.60,South,177,2.0,7.0,64,0.00,BKN,,0.05,0.0,WeatherDisplay:10.37,2013-02-16 04:39:00,
2013-02-15 21:44:00,26.4,15.9,30.47,South,175,2.0,6.0,64,0.00,BKN,,0.05,0.0,WeatherDisplay:10.37,2013-02-16 04:44:00,
2013-02-15 21:49:00,26.3,15.8,30.47,South,179,3.0,6.0,64,0.00,BKN,,0.05,0.0,WeatherDisplay:10.37,2013-02-16 04:49:00,
2013-02-15 21:54:00,26.2,16.0,30.44,South,182,5.0,7.0,65,0.00,BKN,,0.05,0.0,WeatherDisplay:10.37,2013-02-16 04:54:00,
2013-02-15 21:59:00,26.1,16.0,30.42,South,183,5.0,8.0,65,0.00,BKN,,0.05,0.0,WeatherDisplay:10.37,2013-02-16 04:59:00,
2013-02-15 22:04:00,26.0,16.2,30.42,South,181,3.0,9.0,66,0.00,BKN,,0.05,0.0,WeatherDisplay:10.37,2013-02-16 05:04:00,
2013-02-15 22:09:00,25.9,16.1,30.46,South,179,5.0,8.0,66,0.00,BKN,,0.05,0.0,WeatherDisplay:10.37,2013-02-16 05:09:00,
2013-02-15 22:14:00,25.8,16.0,30.42,South,180,3.0,8.0,66,0.00,BKN,,0.05,0.0,WeatherDisplay:10.37,2013-02-16 05:14:00,
2013-02-15 22:19:00,25.7,15.9,30.42,South,175,3.0,7.0,66,0.00,SCT,,0.05,0.0,WeatherDisplay:10.37,2013-02-16 05:19:00,
2013-02-15 22:24:00,25.6,15.8,30.38,South,173,3.0,6.0,66,0.00,SCT,,0.05,0.0,WeatherDisplay:10.37,2013-02-16 05:24:00,
2013-02-15 22:29:00,25.5,15.8,30.42,South,175,3.0,6.0,66,0.00,SCT,,0.05,0.0,WeatherDisplay:10.37,2013-02-16 05:29:00,
2013-02-15 22:34:00,25.4,15.6,30.51,South,176,5.0,7.0,66,0.00,SCT,,0.05,0.0,WeatherDisplay:10.37,2013-02-16 05:34:00,
2013-02-15 22:39:00,25.3,15.5,30.40,South,178,3.0,7.0,66,0.00,SCT,,0.05,0.0,WeatherDisplay:10.37,2013-02-16 05:39:00,
2013-02-15 22:44:00,25.3,15.5,30.37,South,181,5.0,7.0,66,0.00,SCT,,0.05,0.0,WeatherDisplay:10.37,2013-02-16 05:44:00,
2013-02-15 22:49:00,25.2,15.4,30.44,South,180,5.0,7.0,66,0.00,SCT,,0.05,0.0,WeatherDisplay:10.37,2013-02-16 05:49:00,
2013-02-15 22:54:00,25.2,15.4,30.45,South,180,5.0,7.0,66,0.00,SCT,,0.05,0.0,WeatherDisplay:10.37,2013-02-16 05:54:00,
2013-02-15 22:59:00,25.2,15.4,30.45,South,180,5.0,7.0,66,0.00,SCT,,0.05,0.0,WeatherDisplay:10.37,2013-02-16 05:59:00,
2013-02-15 23:04:00,25.1,15.3,30.43,South,180,5.0,7.0,66,0.00,FEW,,0.05,0.0,WeatherDisplay:10.37,2013-02-16 06:04:00,
2013-02-15 23:09:00,25.1,15.3,30.42,South,181,5.0,7.0,66,0.00,FEW,,0.05,0.0,WeatherDisplay:10.37,2013-02-16 06:09:00,
2013-02-15 23:19:00,25.1,15.3,30.36,South,177,2.0,6.0,66,0.00,FEW,,0.05,0.0,WeatherDisplay:10.37,2013-02-16 06:19:00,
2013-02-15 23:29:00,25.0,14.9,30.36,South,177,2.0,5.0,65,0.00,FEW,,0.05,0.0,WeatherDisplay:10.37,2013-02-16 06:29:00,
2013-02-15 23:39:00,24.9,14.8,30.36,South,174,3.0,6.0,65,0.00,FEW,,0.05,0.0,WeatherDisplay:10.37,2013-02-16 06:39:00,
2013-02-15 23:49:00,24.8,14.7,30.36,South,179,5.0,7.0,65,0.00,FEW,,0.05,0.0,WeatherDisplay:10.37,2013-02-16 06:49:00,
2013-02-15 23:54:00,24.8,14.7,30.94,South,177,3.0,7.0,65,0.00,FEW,,0.05,0.0,WeatherDisplay:10.37,2013-02-16 06:54:00,
2013-02-15 23:59:00,24.7,14.2,30.69,South,176,3.0,6.0,64,0.00,RA,,0.00,0.0,WeatherDisplay:10.37,2013-02-16 06:59:00,